Current Weather

Linton Municipal Airport

Linton Municipal Airport, North Dakota (K7L2)

Report from: Saturday, June 22, 2024 5:35 AM CDT
Current time: Saturday, June 22, 2024 5:52 AM CDT

Nearby weather – Weather history – Daily summaries
Weather forecast

Present weatherMist
Temperature16.0°C (60.8°F)
Dew point16.0°C (60.8°F)
Winds Calm
Visibility2.5 mi. (4 km)
Clouds Ceiling: Overcast 300 ft. (91 m)
Altimeter29.94 in.Hg (1014 mB)
Relative humidity100 %
Density altitude346 ft. (106 m)
Remarks Fully automated report
Automated weather observing station with precipitation discriminator
Lightning observed
Distant west
Flight conditions Low Instrument Meteorological Conditions
Raw dataK7L2 221035Z AUTO 00000KT 2 1/2SM BR OVC003 16/16 A2994 RMK AO2 LTG DSNT W
An error has occurred. This application may no longer respond until reloaded. Reload 🗙